createdAt,value
2022-10-09T00:00:18.764Z,2.20
2022-10-09T00:02:46.637Z,0.80
2022-10-09T00:05:14.537Z,3.00
2022-10-09T00:07:42.149Z,3.00
2022-10-09T00:10:09.730Z,3.60
2022-10-09T00:12:37.898Z,0.20
2022-10-09T00:15:05.583Z,1.00
2022-10-09T00:17:33.158Z,2.20
2022-10-09T00:20:01.084Z,3.20
2022-10-09T00:22:28.670Z,1.80
2022-10-09T00:24:56.803Z,2.60
2022-10-09T00:27:24.392Z,3.60
2022-10-09T00:29:51.974Z,4.00
2022-10-09T00:32:19.534Z,3.60
2022-10-09T00:34:47.126Z,3.60
2022-10-09T00:37:14.993Z,4.00
2022-10-09T00:39:42.549Z,4.40
2022-10-09T00:42:10.652Z,5.60
2022-10-09T00:44:38.264Z,4.00
2022-10-09T00:47:05.810Z,3.60
2022-10-09T00:49:33.915Z,3.20
2022-10-09T00:52:01.513Z,4.00
2022-10-09T00:54:29.048Z,1.00
2022-10-09T00:56:56.700Z,3.00
2022-10-09T00:59:24.247Z,2.60
2022-10-09T01:01:52.311Z,3.00
2022-10-09T01:04:20.422Z,2.20
2022-10-09T01:06:47.964Z,3.00
2022-10-09T01:09:15.542Z,3.20
2022-10-09T01:11:43.476Z,3.00
2022-10-09T01:14:11.596Z,3.00
2022-10-09T01:16:39.204Z,3.00
2022-10-09T01:19:06.779Z,3.40
2022-10-09T01:21:34.314Z,3.00
2022-10-09T01:24:02.160Z,0.00
2022-10-09T01:26:31.979Z,0.20
2022-10-09T01:28:59.530Z,3.00
2022-10-09T01:31:27.212Z,4.00
2022-10-09T01:33:54.857Z,1.00
2022-10-09T01:36:22.433Z,1.00
2022-10-09T01:38:50.374Z,3.00
2022-10-09T01:41:17.983Z,1.00
2022-10-09T01:43:45.549Z,1.00
2022-10-09T01:46:13.217Z,3.00
2022-10-09T01:48:40.837Z,0.40
2022-10-09T01:51:08.749Z,2.20
2022-10-09T01:53:36.288Z,2.60
2022-10-09T01:56:03.898Z,3.00
2022-10-09T01:58:31.447Z,1.80
2022-10-09T02:00:59.003Z,3.00
2022-10-09T02:03:26.933Z,3.00
2022-10-09T02:05:54.535Z,3.40
2022-10-09T02:08:22.122Z,3.40
2022-10-09T02:10:50.212Z,1.00
2022-10-09T02:13:17.760Z,0.60
2022-10-09T02:15:45.975Z,2.20
2022-10-09T02:18:13.634Z,3.00
2022-10-09T02:20:41.220Z,1.00
2022-10-09T02:23:08.842Z,3.00
2022-10-09T02:25:36.439Z,3.40
2022-10-09T02:28:04.426Z,3.00
2022-10-09T02:30:32.033Z,1.00
2022-10-09T02:32:59.617Z,1.40
2022-10-09T02:35:27.206Z,1.00
2022-10-09T02:37:54.786Z,1.00
2022-10-09T02:40:23.026Z,2.60
2022-10-09T02:42:50.823Z,2.20
2022-10-09T02:45:18.773Z,3.00
2022-10-09T02:47:46.333Z,1.00
2022-10-09T02:50:13.990Z,3.00
2022-10-09T02:52:42.129Z,1.80
2022-10-09T02:55:10.117Z,4.40
2022-10-09T02:57:37.753Z,2.60
2022-10-09T03:00:05.304Z,1.00
2022-10-09T03:02:32.967Z,4.00
2022-10-09T03:05:01.155Z,1.00
2022-10-09T03:07:28.692Z,1.80
2022-10-09T03:09:57.369Z,3.00
2022-10-09T03:12:24.889Z,2.60
2022-10-09T03:14:52.454Z,3.00
2022-10-09T03:17:20.572Z,3.00
2022-10-09T03:19:48.107Z,3.00
2022-10-09T03:22:15.652Z,3.00
2022-10-09T03:24:43.257Z,3.00
2022-10-09T03:27:10.784Z,3.00
2022-10-09T03:29:38.642Z,3.00
2022-10-09T03:32:06.317Z,1.40
2022-10-09T03:34:33.876Z,3.00
2022-10-09T03:37:01.397Z,2.80
2022-10-09T03:39:29.477Z,3.00
2022-10-09T03:41:57.064Z,3.00
2022-10-09T03:44:24.667Z,4.00
2022-10-09T03:46:52.668Z,3.40
2022-10-09T03:49:20.528Z,2.60
2022-10-09T03:51:48.082Z,1.00
2022-10-09T03:54:15.663Z,3.80
2022-10-09T03:56:43.183Z,0.00
2022-10-09T03:59:10.727Z,3.00
2022-10-09T04:01:38.613Z,3.00
2022-10-09T04:04:06.183Z,3.60
2022-10-09T04:06:34.314Z,3.40
2022-10-09T04:09:02.526Z,3.00
2022-10-09T04:11:30.071Z,3.00
2022-10-09T04:13:57.618Z,3.00
2022-10-09T04:16:25.310Z,4.00
2022-10-09T04:18:53.530Z,3.00
2022-10-09T04:21:21.037Z,2.20
2022-10-09T04:23:49.040Z,1.40
2022-10-09T04:26:16.588Z,3.20
2022-10-09T04:28:45.031Z,3.00
2022-10-09T04:31:13.278Z,3.20
2022-10-09T04:33:40.905Z,4.00
2022-10-09T04:36:08.439Z,3.00
2022-10-09T04:38:36.032Z,2.60
2022-10-09T04:41:03.609Z,1.00
2022-10-09T04:43:31.490Z,2.60
2022-10-09T04:45:59.138Z,3.00
2022-10-09T04:48:26.768Z,3.00
2022-10-09T04:50:54.337Z,2.20
2022-10-09T04:53:21.928Z,1.80
2022-10-09T04:55:50.097Z,1.00
2022-10-09T04:58:17.757Z,1.80
2022-10-09T05:00:45.390Z,3.00
2022-10-09T05:03:12.969Z,1.80
2022-10-09T05:05:40.925Z,1.00
2022-10-09T05:08:09.054Z,3.00
2022-10-09T05:10:36.620Z,3.20
2022-10-09T05:13:04.289Z,1.00
2022-10-09T05:15:32.001Z,1.80
2022-10-09T05:17:59.522Z,1.40
2022-10-09T05:20:27.703Z,2.20
2022-10-09T05:22:55.309Z,0.60
2022-10-09T05:25:22.851Z,4.00
2022-10-09T05:27:50.855Z,1.00
2022-10-09T05:30:18.431Z,2.20
2022-10-09T05:32:46.467Z,3.00
2022-10-09T05:35:14.219Z,3.80
2022-10-09T05:37:41.827Z,4.00
2022-10-09T05:40:09.365Z,6.20
2022-10-09T05:42:36.930Z,3.40
2022-10-09T05:45:04.890Z,3.00
2022-10-09T05:47:32.455Z,5.20
2022-10-09T05:50:00.434Z,3.00
2022-10-09T05:52:28.056Z,4.00
2022-10-09T05:54:57.179Z,0.60
2022-10-09T05:57:25.300Z,6.00
2022-10-09T05:59:52.879Z,6.00
2022-10-09T06:02:20.498Z,0.80
2022-10-09T06:04:48.087Z,4.80
2022-10-09T06:07:15.702Z,6.00
2022-10-09T06:09:43.593Z,4.40
2022-10-09T06:12:11.468Z,6.60
2022-10-09T06:14:39.026Z,8.20
2022-10-09T06:17:06.693Z,3.00
2022-10-09T06:19:34.323Z,3.00
2022-10-09T06:22:02.605Z,1.40
2022-10-09T06:24:30.155Z,1.00
2022-10-09T06:26:57.772Z,1.00
2022-10-09T06:29:25.488Z,3.00
2022-10-09T06:31:53.183Z,4.00
2022-10-09T06:34:20.999Z,3.80
2022-10-09T06:36:48.638Z,4.00
2022-10-09T06:39:16.210Z,4.80
2022-10-09T06:41:43.812Z,4.00
2022-10-09T06:44:16.025Z,7.00
2022-10-09T06:46:44.433Z,10.00
2022-10-09T06:49:12.062Z,13.80
2022-10-09T06:51:39.692Z,10.40
2022-10-09T06:54:08.833Z,9.60
2022-10-09T06:56:36.421Z,3.60
2022-10-09T06:59:04.527Z,7.00
2022-10-09T07:01:32.525Z,3.40
2022-10-09T07:04:00.222Z,4.80
2022-10-09T07:06:27.882Z,4.80
2022-10-09T07:08:55.488Z,4.20
2022-10-09T07:11:23.672Z,6.00
2022-10-09T07:13:51.320Z,4.00
2022-10-09T07:16:19.052Z,3.00
2022-10-09T07:18:46.761Z,3.60
2022-10-09T07:21:14.467Z,3.00
2022-10-09T07:23:42.706Z,3.00
2022-10-09T07:26:10.307Z,3.00
2022-10-09T07:28:38.014Z,2.60
2022-10-09T07:31:05.816Z,3.00
2022-10-09T07:33:33.562Z,1.00
2022-10-09T07:36:01.819Z,3.00
2022-10-09T07:38:29.972Z,4.00
2022-10-09T07:40:57.926Z,3.00
2022-10-09T07:43:25.660Z,3.00
2022-10-09T07:45:53.323Z,5.00
2022-10-09T07:48:20.969Z,3.75
2022-10-09T07:50:48.629Z,6.00
2022-10-09T07:53:16.332Z,6.50
2022-10-09T07:55:43.937Z,6.00
2022-10-09T07:58:11.655Z,3.75
2022-10-09T08:00:41.541Z,7.00
2022-10-09T08:03:09.323Z,5.00
2022-10-09T08:05:37.164Z,6.00
2022-10-09T08:08:04.859Z,1.00
2022-10-09T08:10:32.644Z,1.00
2022-10-09T08:13:00.983Z,6.00
2022-10-09T08:15:28.700Z,4.00
2022-10-09T08:17:56.547Z,3.75
2022-10-09T08:20:24.363Z,4.50
2022-10-09T08:22:52.595Z,5.00
2022-10-09T08:25:20.710Z,4.00
2022-10-09T08:27:48.549Z,3.00
2022-10-09T08:30:16.259Z,3.25
2022-10-09T08:32:44.121Z,3.75
2022-10-09T08:35:11.853Z,5.50
2022-10-09T08:37:40.382Z,4.00
2022-10-09T08:40:08.035Z,4.00
2022-10-09T08:42:35.805Z,1.00
2022-10-09T08:45:03.492Z,4.00
2022-10-09T08:47:31.215Z,3.00
2022-10-09T08:49:59.153Z,3.75
2022-10-09T08:52:27.293Z,3.00
2022-10-09T08:54:54.996Z,3.75
2022-10-09T08:57:22.967Z,3.00
2022-10-09T08:59:50.711Z,3.50
2022-10-09T09:02:19.123Z,2.00
2022-10-09T09:04:51.153Z,3.50
2022-10-09T09:07:21.667Z,3.00
2022-10-09T09:09:49.473Z,5.00
2022-10-09T09:12:17.234Z,4.00
2022-10-09T09:14:45.473Z,2.50
2022-10-09T09:17:13.260Z,4.50
2022-10-09T09:19:40.958Z,3.00
2022-10-09T09:22:08.806Z,3.00
2022-10-09T09:24:36.613Z,3.50
2022-10-09T09:27:06.575Z,2.00
2022-10-09T09:29:34.316Z,1.50
2022-10-09T09:32:02.295Z,1.00
2022-10-09T09:34:30.231Z,3.25
2022-10-09T09:36:58.252Z,1.50
2022-10-09T09:42:14.584Z,0.50
2022-10-09T09:44:42.352Z,1.00
2022-10-09T09:47:10.122Z,0.00
2022-10-09T09:49:38.396Z,1.00
2022-10-09T09:52:06.270Z,2.60
2022-10-09T09:54:34.105Z,1.40
2022-10-09T09:57:21.872Z,1.00
2022-10-09T09:59:50.713Z,0.00
2022-10-09T10:02:18.612Z,1.80
2022-10-09T10:04:46.451Z,1.00
2022-10-09T10:07:15.077Z,0.40
2022-10-09T10:09:42.988Z,1.00
2022-10-09T10:12:11.616Z,0.20
2022-10-09T10:14:39.470Z,1.00
2022-10-09T10:17:07.223Z,1.40
2022-10-09T10:19:35.620Z,1.00
2022-10-09T10:22:03.523Z,3.00
2022-10-09T10:24:31.509Z,0.80
2022-10-09T10:26:59.421Z,1.00
2022-10-09T10:29:27.684Z,0.80
2022-10-09T10:31:55.369Z,0.20
2022-10-09T10:34:23.182Z,0.80
2022-10-09T10:36:51.554Z,3.00
2022-10-09T10:39:19.264Z,1.00
2022-10-09T10:41:48.053Z,1.00
2022-10-09T10:44:15.928Z,1.00
2022-10-09T10:46:44.664Z,1.00
2022-10-09T10:49:13.134Z,1.20
2022-10-09T10:51:41.438Z,1.00
2022-10-09T10:54:09.291Z,1.00
2022-10-09T10:56:37.087Z,1.00
2022-10-09T10:59:05.102Z,1.80
2022-10-09T11:01:33.808Z,1.00
2022-10-09T11:04:01.708Z,1.00
2022-10-09T11:06:29.503Z,3.00
2022-10-09T11:08:57.236Z,1.00
2022-10-09T11:11:24.966Z,3.40
2022-10-09T11:13:55.056Z,0.60
2022-10-09T11:16:22.923Z,2.80
2022-10-09T11:18:50.803Z,1.00
2022-10-09T11:21:18.762Z,1.00
2022-10-09T11:23:46.523Z,1.00
2022-10-09T11:26:14.736Z,1.00
2022-10-09T11:28:42.852Z,1.00
2022-10-09T11:31:10.737Z,0.60
2022-10-09T11:33:38.569Z,1.00
2022-10-09T11:36:06.876Z,1.00
2022-10-09T11:38:35.419Z,1.40
2022-10-09T11:41:06.581Z,1.60
2022-10-09T11:43:35.337Z,1.00
2022-10-09T11:46:03.184Z,1.00
2022-10-09T11:48:31.031Z,1.00
2022-10-09T11:50:59.676Z,1.40
2022-10-09T11:53:27.420Z,1.00
2022-10-09T11:55:55.424Z,2.00
2022-10-09T11:58:23.794Z,1.00
2022-10-09T12:00:51.644Z,1.00
2022-10-09T12:03:19.856Z,2.00
2022-10-09T12:05:47.874Z,1.20
2022-10-09T12:08:18.540Z,1.00
2022-10-09T12:10:47.663Z,1.20
2022-10-09T12:13:15.558Z,1.00
2022-10-09T12:15:43.472Z,2.00
2022-10-09T12:18:11.397Z,1.00
2022-10-09T12:20:39.694Z,1.00
2022-10-09T12:23:25.622Z,1.00
2022-10-09T12:25:55.497Z,1.60
2022-10-09T12:28:23.473Z,1.00
2022-10-09T12:30:51.449Z,0.40
2022-10-09T12:33:19.489Z,1.00
2022-10-09T12:35:47.459Z,1.80
2022-10-09T12:38:15.750Z,1.00
2022-10-09T12:40:44.049Z,1.40
2022-10-09T12:43:11.883Z,0.60
2022-10-09T12:45:39.546Z,1.60
2022-10-09T12:48:07.611Z,1.80
2022-10-09T12:50:35.850Z,1.60
2022-10-09T12:53:03.556Z,1.00
2022-10-09T12:55:31.349Z,1.00
2022-10-09T12:57:59.250Z,1.00
2022-10-09T13:00:27.133Z,1.60
2022-10-09T13:02:57.369Z,1.00
2022-10-09T13:05:25.255Z,0.80
2022-10-09T13:07:53.443Z,1.00
2022-10-09T13:10:21.368Z,1.80
2022-10-09T13:12:49.372Z,1.00
2022-10-09T13:15:19.139Z,1.00
2022-10-09T13:17:47.436Z,1.00
2022-10-09T13:20:15.433Z,1.00
2022-10-09T13:22:43.631Z,2.00
2022-10-09T13:25:11.872Z,1.00
2022-10-09T13:27:40.102Z,1.00
2022-10-09T13:30:07.830Z,1.00
2022-10-09T13:32:35.753Z,1.00
2022-10-09T13:35:03.794Z,0.80
2022-10-09T13:37:31.657Z,1.00
2022-10-09T13:39:59.927Z,0.60
2022-10-09T13:42:27.825Z,1.00
2022-10-09T13:44:55.767Z,1.00
2022-10-09T13:47:24.780Z,0.00
2022-10-09T13:49:52.827Z,0.60
2022-10-09T13:52:20.977Z,1.00
2022-10-09T13:54:48.841Z,1.00
2022-10-09T13:57:16.696Z,1.00
2022-10-09T13:59:44.914Z,1.00
2022-10-09T14:02:12.825Z,1.60
2022-10-09T14:04:41.565Z,0.80
2022-10-09T14:07:09.376Z,1.00
2022-10-09T14:09:37.548Z,1.40
2022-10-09T14:12:05.493Z,1.00
2022-10-09T14:14:33.295Z,2.00
2022-10-09T14:17:01.571Z,1.80
2022-10-09T14:19:29.503Z,1.00
2022-10-09T14:21:57.298Z,1.00
2022-10-09T14:24:25.096Z,1.00
2022-10-09T14:26:52.857Z,1.00
2022-10-09T14:29:21.211Z,1.40
2022-10-09T14:31:49.470Z,1.00
2022-10-09T14:34:17.321Z,1.00
2022-10-09T14:36:50.823Z,1.00
2022-10-09T14:39:18.659Z,1.60
2022-10-09T14:41:46.919Z,1.00
2022-10-09T14:44:14.823Z,1.20
2022-10-09T14:46:42.578Z,1.00
2022-10-09T14:49:10.400Z,1.00
2022-10-09T14:51:38.346Z,1.00
2022-10-09T14:54:07.959Z,2.00
2022-10-09T14:56:36.360Z,1.00
2022-10-09T14:59:06.039Z,1.80
2022-10-09T15:01:33.974Z,1.00
2022-10-09T15:04:01.822Z,1.60
2022-10-09T15:06:30.118Z,2.00
2022-10-09T15:09:03.053Z,0.00
2022-10-09T15:11:33.536Z,1.20
2022-10-09T15:14:01.369Z,2.00
2022-10-09T15:16:29.255Z,2.00
2022-10-09T15:18:57.899Z,1.80
2022-10-09T15:21:25.811Z,1.00
2022-10-09T15:23:53.599Z,0.60
2022-10-09T15:26:21.494Z,2.00
2022-10-09T15:28:49.251Z,1.00
2022-10-09T15:31:17.623Z,1.00
2022-10-09T15:33:45.440Z,1.20
2022-10-09T15:36:13.272Z,2.00
2022-10-09T15:38:41.212Z,2.00
2022-10-09T15:41:09.115Z,2.00
2022-10-09T15:43:39.109Z,1.00
2022-10-09T15:46:09.062Z,1.00
2022-10-09T15:48:36.923Z,1.00
2022-10-09T15:51:06.561Z,2.00
2022-10-09T15:53:34.374Z,1.00
2022-10-09T15:56:04.422Z,1.00
2022-10-09T15:58:32.232Z,1.00
2022-10-09T16:00:59.918Z,0.60
2022-10-09T16:03:29.203Z,1.00
2022-10-09T16:05:57.025Z,1.00
2022-10-09T16:08:25.279Z,0.00
2022-10-09T16:10:53.278Z,1.00
2022-10-09T16:13:21.112Z,3.00
2022-10-09T16:15:48.928Z,6.00
2022-10-09T16:18:17.220Z,1.00
2022-10-09T16:20:45.888Z,2.20
2022-10-09T16:23:13.822Z,1.00
2022-10-09T16:25:41.831Z,0.60
2022-10-09T16:28:09.803Z,1.00
2022-10-09T16:30:37.750Z,1.00
2022-10-09T16:33:09.137Z,1.00
2022-10-09T16:35:40.058Z,1.00
2022-10-09T16:38:07.853Z,1.00
2022-10-09T16:43:24.350Z,1.00
2022-10-09T16:45:52.189Z,1.00
2022-10-09T16:48:20.093Z,1.00
2022-10-09T16:50:48.033Z,0.50
2022-10-09T16:53:15.915Z,0.25
2022-10-09T16:55:44.234Z,0.50
2022-10-09T16:58:12.109Z,0.00
2022-10-09T17:00:40.432Z,1.00
2022-10-09T17:03:08.247Z,1.00
2022-10-09T17:05:36.312Z,1.00
2022-10-09T17:08:04.656Z,1.00
2022-10-09T17:10:32.579Z,1.50
2022-10-09T17:13:00.507Z,1.00
2022-10-09T17:15:28.386Z,1.00
2022-10-09T17:17:56.399Z,1.00
2022-10-09T17:20:24.681Z,1.00
2022-10-09T17:22:53.060Z,1.00
2022-10-09T17:25:20.959Z,3.25
2022-10-09T17:27:48.827Z,3.00
2022-10-09T17:30:16.613Z,2.50
2022-10-09T17:32:45.140Z,1.00
2022-10-09T17:35:13.247Z,1.50
2022-10-09T17:37:41.141Z,1.00
2022-10-09T17:40:09.121Z,3.00
2022-10-09T17:42:37.113Z,3.50
2022-10-09T17:45:07.262Z,10.00
2022-10-09T17:47:35.799Z,4.00
2022-10-09T17:50:03.735Z,5.50
2022-10-09T17:52:31.566Z,3.00
2022-10-09T17:54:59.406Z,6.00
2022-10-09T17:57:27.750Z,6.00
2022-10-09T17:59:55.740Z,3.75
2022-10-09T18:02:23.646Z,2.50
2022-10-09T18:04:51.496Z,3.00
2022-10-09T18:07:20.382Z,3.50
2022-10-09T18:09:48.897Z,4.00
2022-10-09T18:12:16.712Z,3.00
2022-10-09T18:14:44.580Z,4.00
2022-10-09T18:17:12.447Z,6.25
2022-10-09T18:19:40.333Z,7.00
2022-10-09T18:22:08.805Z,6.00
2022-10-09T18:24:36.658Z,12.50
2022-10-09T18:27:04.524Z,3.75
2022-10-09T18:29:32.807Z,6.25
2022-10-09T18:32:00.632Z,5.00
2022-10-09T18:34:29.152Z,4.00
2022-10-09T18:36:58.664Z,6.50
2022-10-09T18:39:26.458Z,6.75
2022-10-09T18:41:55.642Z,6.00
2022-10-09T18:44:24.690Z,1.00
2022-10-09T18:46:53.260Z,11.25
2022-10-09T18:49:21.116Z,7.00
2022-10-09T18:51:49.316Z,3.75
2022-10-09T18:54:18.282Z,9.25
2022-10-09T18:56:46.613Z,3.50
2022-10-09T18:59:15.002Z,6.00
2022-10-09T19:01:42.857Z,4.00
2022-10-09T19:04:10.766Z,5.50
2022-10-09T19:06:38.701Z,4.00
2022-10-09T19:09:06.604Z,3.75
2022-10-09T19:11:35.163Z,5.00
2022-10-09T19:14:03.468Z,3.00
2022-10-09T19:16:31.209Z,5.50
2022-10-09T19:18:59.080Z,4.00
2022-10-09T19:21:26.779Z,4.00
2022-10-09T19:23:55.208Z,4.00
2022-10-09T19:26:23.118Z,3.75
2022-10-09T19:28:51.055Z,5.00
2022-10-09T19:31:18.931Z,3.25
2022-10-09T19:33:46.686Z,3.00
2022-10-09T19:36:14.545Z,4.50
2022-10-09T19:38:42.324Z,4.00
2022-10-09T19:41:10.311Z,6.00
2022-10-09T19:43:38.167Z,6.00
2022-10-09T19:46:06.067Z,3.00
2022-10-09T19:48:34.754Z,9.00
2022-10-09T19:51:02.568Z,6.50
2022-10-09T19:53:30.394Z,9.00
2022-10-09T19:55:58.665Z,7.00
2022-10-09T19:58:26.488Z,7.00
2022-10-09T20:00:54.728Z,6.25
2022-10-09T20:03:22.635Z,8.50
2022-10-09T20:05:50.435Z,9.60
2022-10-09T20:08:18.404Z,10.00
2022-10-09T20:10:46.285Z,11.60
2022-10-09T20:13:15.080Z,10.00
2022-10-09T20:15:42.989Z,12.00
2022-10-09T20:18:11.221Z,10.00
2022-10-09T20:20:39.102Z,11.20
2022-10-09T20:23:07.118Z,16.40
2022-10-09T20:25:35.637Z,21.00
2022-10-09T20:28:03.552Z,22.40
2022-10-09T20:30:31.476Z,21.80
2022-10-09T20:33:00.027Z,18.20
2022-10-09T20:35:28.267Z,18.00
2022-10-09T20:37:56.934Z,7.40
2022-10-09T20:40:25.344Z,13.60
2022-10-09T20:42:53.541Z,11.60
2022-10-09T20:45:21.516Z,10.00
2022-10-09T20:47:50.584Z,9.00
2022-10-09T20:50:19.204Z,9.00
2022-10-09T20:52:47.180Z,7.00
2022-10-09T20:55:15.153Z,6.00
2022-10-09T20:57:43.019Z,8.60
2022-10-09T21:00:10.835Z,6.80
2022-10-09T21:02:40.277Z,6.00
2022-10-09T21:05:08.441Z,4.00
2022-10-09T21:07:36.192Z,6.60
2022-10-09T21:10:04.094Z,5.50
2022-10-09T21:12:31.750Z,3.50
2022-10-09T21:15:00.121Z,4.00
2022-10-09T21:17:28.218Z,5.50
2022-10-09T21:19:57.785Z,2.00
2022-10-09T21:22:25.499Z,5.25
2022-10-09T21:24:53.996Z,0.00
2022-10-09T21:27:22.319Z,3.20
2022-10-09T21:29:50.177Z,3.00
2022-10-09T21:32:18.170Z,0.80
2022-10-09T21:34:45.919Z,4.00
2022-10-09T21:37:21.421Z,4.50
2022-10-09T21:39:50.135Z,3.75
2022-10-09T21:42:17.815Z,4.00
2022-10-09T21:44:45.574Z,1.00
2022-10-09T21:47:13.843Z,3.00
2022-10-09T21:49:41.937Z,3.00
2022-10-09T21:52:10.474Z,4.00
2022-10-09T21:54:38.245Z,7.00
2022-10-09T21:57:06.034Z,5.60
2022-10-09T21:59:33.729Z,3.80
2022-10-09T22:02:01.553Z,4.00
2022-10-09T22:04:29.810Z,3.00
2022-10-09T22:06:57.473Z,4.00
2022-10-09T22:09:25.275Z,3.00
2022-10-09T22:11:53.104Z,3.00
2022-10-09T22:14:20.782Z,2.60
2022-10-09T22:16:48.971Z,3.50
2022-10-09T22:19:16.603Z,2.50
2022-10-09T22:21:44.331Z,1.00
2022-10-09T22:24:12.129Z,4.00
2022-10-09T22:26:39.753Z,3.00
2022-10-09T22:29:07.893Z,3.60
2022-10-09T22:31:36.004Z,3.80
2022-10-09T22:34:03.701Z,0.00
2022-10-09T22:36:31.292Z,3.00
2022-10-09T22:38:59.068Z,3.60
2022-10-09T22:41:27.294Z,4.00
2022-10-09T22:43:55.013Z,2.60
2022-10-09T22:46:22.694Z,3.20
2022-10-09T22:48:50.326Z,2.60
2022-10-09T22:51:17.936Z,6.00
2022-10-09T22:53:47.364Z,3.00
2022-10-09T22:56:15.035Z,3.00
2022-10-09T22:58:42.633Z,2.60
2022-10-09T23:01:10.305Z,4.40
2022-10-09T23:03:38.049Z,4.00
2022-10-09T23:06:06.226Z,3.00
2022-10-09T23:08:33.892Z,3.80
2022-10-09T23:11:01.565Z,1.40
2022-10-09T23:13:29.180Z,1.00
2022-10-09T23:15:57.240Z,1.40
2022-10-09T23:18:25.460Z,1.00
2022-10-09T23:20:53.190Z,1.00
2022-10-09T23:23:20.989Z,0.25
2022-10-09T23:25:48.688Z,0.75
2022-10-09T23:28:16.306Z,1.00
2022-10-09T23:30:44.338Z,1.00
2022-10-09T23:33:11.871Z,1.00
2022-10-09T23:35:39.470Z,1.00
2022-10-09T23:38:07.166Z,0.50
2022-10-09T23:40:34.780Z,0.00
2022-10-09T23:43:02.947Z,0.50
2022-10-09T23:45:30.565Z,0.50
2022-10-09T23:47:58.161Z,1.00
2022-10-09T23:50:25.703Z,1.00
2022-10-09T23:52:53.413Z,1.00
2022-10-09T23:55:21.725Z,1.00
2022-10-09T23:57:49.279Z,1.00
